createdAt,value
2022-11-23T00:02:39.223Z,-0.13
2022-11-23T00:07:42.268Z,-0.18
2022-11-23T00:12:45.385Z,-0.23
2022-11-23T00:17:49.120Z,-0.25
2022-11-23T00:22:52.261Z,-0.30
2022-11-23T00:27:55.033Z,-0.31
2022-11-23T00:32:57.874Z,-0.39
2022-11-23T00:38:00.661Z,-0.44
2022-11-23T00:43:03.645Z,-0.44
2022-11-23T00:48:06.456Z,-0.42
2022-11-23T00:53:09.227Z,-0.40
2022-11-23T00:58:12.137Z,-0.36
2022-11-23T01:03:16.108Z,-0.34
2022-11-23T01:08:18.945Z,-0.37
2022-11-23T01:13:21.767Z,-0.41
2022-11-23T01:18:25.364Z,-0.44
2022-11-23T01:23:31.149Z,-0.46
2022-11-23T01:28:34.992Z,-0.45
2022-11-23T01:33:38.836Z,-0.41
2022-11-23T01:38:42.062Z,-0.46
2022-11-23T01:43:45.390Z,-0.46
2022-11-23T01:49:01.956Z,-0.40
2022-11-23T01:54:10.077Z,-0.41
2022-11-23T01:59:16.564Z,-0.45
2022-11-23T02:04:31.302Z,-0.45
2022-11-23T02:09:36.113Z,-0.47
2022-11-23T02:14:39.117Z,-0.48
2022-11-23T02:19:53.266Z,-0.45
2022-11-23T02:24:56.501Z,-0.35
2022-11-23T02:30:00.995Z,-0.33
2022-11-23T02:35:04.021Z,-0.36
2022-11-23T02:40:17.169Z,-0.44
2022-11-23T02:45:23.092Z,-0.49
2022-11-23T02:50:25.959Z,-0.57
2022-11-23T02:55:29.360Z,-0.61
2022-11-23T03:00:33.560Z,-0.62
2022-11-23T03:05:36.435Z,-0.62
2022-11-23T03:10:39.246Z,-0.59
2022-11-23T03:15:42.023Z,-0.57
2022-11-23T03:20:44.806Z,-0.53
2022-11-23T03:25:55.954Z,-0.47
2022-11-23T03:30:58.745Z,-0.46
2022-11-23T03:36:01.855Z,-0.47
2022-11-23T03:41:04.692Z,-0.48
2022-11-23T03:46:07.455Z,-0.51
2022-11-23T03:51:10.308Z,-0.54
2022-11-23T03:56:13.074Z,-0.56
2022-11-23T04:01:16.039Z,-0.57
2022-11-23T04:06:18.837Z,-0.63
2022-11-23T04:11:21.576Z,-0.69
2022-11-23T04:16:24.364Z,-0.75
2022-11-23T04:21:27.187Z,-0.81
2022-11-23T04:26:29.980Z,-0.82
2022-11-23T04:31:32.882Z,-0.79
2022-11-23T04:36:35.696Z,-0.79
2022-11-23T04:41:39.250Z,-0.81
2022-11-23T04:46:42.187Z,-0.81
2022-11-23T04:51:45.073Z,-0.86
2022-11-23T04:56:48.112Z,-0.96
2022-11-23T05:01:52.406Z,-1.01
2022-11-23T05:06:55.274Z,-1.07
2022-11-23T05:11:58.118Z,-1.15
2022-11-23T05:17:00.920Z,-1.18
2022-11-23T05:22:03.705Z,-1.20
2022-11-23T05:27:06.495Z,-1.19
2022-11-23T05:32:09.465Z,-1.15
2022-11-23T05:37:12.267Z,-1.06
2022-11-23T05:42:15.112Z,-1.03
2022-11-23T05:47:17.860Z,-1.09
2022-11-23T05:52:21.225Z,-1.20
2022-11-23T05:57:24.054Z,-1.31
2022-11-23T06:02:26.841Z,-1.35
2022-11-23T06:07:29.834Z,-1.33
2022-11-23T06:12:33.059Z,-1.32
2022-11-23T06:17:35.961Z,-1.34
2022-11-23T06:22:39.475Z,-1.35
2022-11-23T06:27:42.566Z,-1.38
2022-11-23T06:32:45.411Z,-1.39
2022-11-23T06:37:49.836Z,-1.40
2022-11-23T06:42:58.645Z,-1.42
2022-11-23T06:48:01.501Z,-1.42
2022-11-23T06:53:04.335Z,-1.41
2022-11-23T06:58:07.193Z,-1.41
2022-11-23T07:03:21.432Z,-1.42
2022-11-23T07:08:25.453Z,-1.37
2022-11-23T07:13:28.321Z,-1.30
2022-11-23T07:18:31.124Z,-1.24
2022-11-23T07:23:34.337Z,-1.22
2022-11-23T07:28:37.198Z,-1.17
2022-11-23T07:33:40.371Z,-1.18
2022-11-23T07:38:43.236Z,-1.20
2022-11-23T07:43:46.043Z,-1.17
2022-11-23T07:48:49.025Z,-0.83
2022-11-23T07:53:52.896Z,-0.25
2022-11-23T07:58:56.228Z,0.28
2022-11-23T08:03:59.138Z,0.61
2022-11-23T08:09:02.180Z,0.72
2022-11-23T08:14:05.192Z,0.82
2022-11-23T08:19:08.403Z,0.62
2022-11-23T08:24:12.387Z,0.65
2022-11-23T08:29:15.661Z,0.71
2022-11-23T08:34:19.547Z,0.64
2022-11-23T08:39:22.425Z,0.68
2022-11-23T08:44:27.857Z,0.80
2022-11-23T08:49:32.244Z,0.76
2022-11-23T08:54:35.305Z,0.69
2022-11-23T08:59:38.226Z,0.75
2022-11-23T09:04:41.858Z,0.90
2022-11-23T09:09:44.782Z,0.87
2022-11-23T09:14:48.177Z,0.95
2022-11-23T09:19:51.241Z,1.08
2022-11-23T09:24:54.163Z,1.16
2022-11-23T09:29:57.435Z,1.14
2022-11-23T09:35:00.800Z,0.95
2022-11-23T09:40:04.720Z,0.65
2022-11-23T09:45:33.191Z,0.41
2022-11-23T09:50:45.150Z,0.18
2022-11-23T09:55:51.782Z,-0.08
2022-11-23T10:01:08.056Z,-0.31
2022-11-23T10:06:20.690Z,-0.47
2022-11-23T10:12:14.733Z,-0.59
2022-11-23T10:17:46.286Z,-0.64
2022-11-23T10:23:07.759Z,-0.67
2022-11-23T10:28:15.944Z,-0.55
2022-11-23T10:33:28.591Z,-0.37
2022-11-23T10:38:32.923Z,-0.30
2022-11-23T10:44:20.172Z,-0.29
2022-11-23T10:49:33.039Z,-0.26
2022-11-23T10:54:50.995Z,-0.27
2022-11-23T11:00:15.998Z,-0.28
2022-11-23T11:05:46.385Z,-0.35
2022-11-23T11:11:08.302Z,-0.36
2022-11-23T11:16:22.869Z,-0.30
2022-11-23T11:21:36.371Z,-0.26
2022-11-23T11:26:49.494Z,-0.26
2022-11-23T11:32:19.114Z,-0.27
2022-11-23T11:37:39.173Z,-0.31
2022-11-23T11:42:59.635Z,-0.38
2022-11-23T11:48:15.997Z,-0.47
2022-11-23T11:53:36.930Z,-0.48
2022-11-23T11:58:50.521Z,-0.45
2022-11-23T12:04:08.277Z,-0.41
2022-11-23T12:09:20.029Z,-0.43
2022-11-23T12:14:23.144Z,-0.45
2022-11-23T12:19:37.539Z,-0.46
2022-11-23T12:25:27.884Z,-0.49
2022-11-23T12:30:48.150Z,-0.53
2022-11-23T12:36:23.573Z,-0.55
2022-11-23T12:41:58.305Z,-0.54
2022-11-23T12:47:20.648Z,-0.55
2022-11-23T12:52:57.370Z,-0.55
2022-11-23T12:58:12.772Z,-0.58
2022-11-23T13:11:43.336Z,-0.68
2022-11-23T13:16:54.442Z,-0.74
2022-11-23T13:21:59.405Z,-0.75
2022-11-23T13:27:15.626Z,-0.79
2022-11-23T13:32:42.417Z,-0.82
2022-11-23T13:37:54.996Z,-0.76
2022-11-23T13:43:12.386Z,-0.72
2022-11-23T13:48:54.928Z,-0.69
2022-11-23T13:53:58.774Z,-0.68
2022-11-23T13:59:25.623Z,-0.72
2022-11-23T14:04:32.669Z,-0.82
2022-11-23T14:09:55.604Z,-0.91
2022-11-23T14:15:15.524Z,-0.90
2022-11-23T14:20:35.465Z,-0.88
2022-11-23T14:25:56.090Z,-0.90
2022-11-23T14:31:32.422Z,-0.91
2022-11-23T14:36:55.449Z,-0.89
2022-11-23T14:42:02.216Z,-0.89
2022-11-23T14:47:10.657Z,-0.95
2022-11-23T14:52:32.176Z,-0.93
2022-11-23T14:57:43.258Z,-0.89
2022-11-23T15:02:46.335Z,-0.87
2022-11-23T15:08:14.769Z,-0.87
2022-11-23T15:13:22.341Z,-0.84
2022-11-23T15:18:39.294Z,-0.84
2022-11-23T15:23:45.710Z,-0.84
2022-11-23T15:28:49.796Z,-0.90
2022-11-23T15:33:59.825Z,-0.92
2022-11-23T15:39:08.314Z,-0.95
2022-11-23T15:44:30.923Z,-1.00
2022-11-23T15:49:38.721Z,-1.05
2022-11-23T15:54:41.846Z,-1.09
2022-11-23T16:00:06.353Z,-1.15
2022-11-23T16:05:23.655Z,-1.16
2022-11-23T16:10:28.063Z,-1.12
2022-11-23T16:15:46.436Z,-1.14
2022-11-23T16:20:59.060Z,-1.17
2022-11-23T16:26:06.375Z,-1.18
2022-11-23T16:31:26.516Z,-1.21
2022-11-23T16:36:29.506Z,-1.25
2022-11-23T16:41:32.385Z,-1.24
2022-11-23T16:46:37.949Z,-1.24
2022-11-23T16:51:54.994Z,-1.26
2022-11-23T16:57:00.490Z,-1.21
2022-11-23T17:02:05.121Z,-1.22
2022-11-23T17:07:08.050Z,-1.27
2022-11-23T17:12:19.547Z,-1.23
2022-11-23T17:17:23.288Z,-1.18
2022-11-23T17:22:26.338Z,-1.18
2022-11-23T17:27:32.722Z,-1.18
2022-11-23T17:32:35.525Z,-1.18
2022-11-23T17:37:40.660Z,-1.19
2022-11-23T17:42:44.151Z,-1.21
2022-11-23T17:47:47.204Z,-1.24
2022-11-23T17:52:50.116Z,-1.21
2022-11-23T17:57:54.240Z,-1.19
2022-11-23T18:02:57.041Z,-1.20
2022-11-23T18:08:00.115Z,-1.15
2022-11-23T18:13:03.322Z,-1.11
2022-11-23T18:18:06.250Z,-1.10
2022-11-23T18:23:09.629Z,-1.12
2022-11-23T18:28:12.905Z,-1.15
2022-11-23T18:33:15.796Z,-1.17
2022-11-23T18:38:18.710Z,-1.17
2022-11-23T18:43:21.574Z,-1.18
2022-11-23T18:48:24.718Z,-1.20
2022-11-23T18:53:27.544Z,-1.25
2022-11-23T18:58:34.805Z,-1.29
2022-11-23T19:03:39.741Z,-1.30
2022-11-23T19:08:47.294Z,-1.31
2022-11-23T19:13:53.032Z,-1.31
2022-11-23T19:19:04.220Z,-1.32
2022-11-23T19:24:10.196Z,-1.31
2022-11-23T19:29:13.875Z,-1.30
2022-11-23T19:34:17.750Z,-1.29
2022-11-23T19:39:22.275Z,-1.29
2022-11-23T19:44:25.054Z,-1.32
2022-11-23T19:49:38.675Z,-1.39
2022-11-23T19:54:41.482Z,-1.47
2022-11-23T19:59:46.441Z,-1.51
2022-11-23T20:04:49.547Z,-1.59
2022-11-23T20:09:53.454Z,-1.72
2022-11-23T20:14:56.514Z,-1.76
2022-11-23T20:19:59.358Z,-1.81
2022-11-23T20:25:02.325Z,-1.85
2022-11-23T20:30:05.543Z,-1.84
2022-11-23T20:35:08.946Z,-1.81
2022-11-23T20:40:12.056Z,-1.84
2022-11-23T20:45:14.945Z,-1.84
2022-11-23T20:50:18.532Z,-1.84
2022-11-23T20:55:23.606Z,-1.85
2022-11-23T21:00:27.926Z,-1.80
2022-11-23T21:05:31.050Z,-1.77
2022-11-23T21:10:52.340Z,-1.75
2022-11-23T21:15:55.117Z,-1.73
2022-11-23T21:20:58.070Z,-1.65
2022-11-23T21:26:07.376Z,-1.59
2022-11-23T21:31:11.810Z,-1.58
2022-11-23T21:36:14.726Z,-1.58
2022-11-23T21:41:18.250Z,-1.60
2022-11-23T21:46:23.416Z,-1.62
2022-11-23T21:51:30.016Z,-1.66
2022-11-23T21:56:33.237Z,-1.66
2022-11-23T22:07:16.611Z,-1.76
2022-11-23T22:12:19.652Z,-1.83
2022-11-23T22:17:22.961Z,-1.84
2022-11-23T22:22:27.252Z,-1.83
2022-11-23T22:27:30.423Z,-1.81
2022-11-23T22:32:33.472Z,-1.77
2022-11-23T22:37:36.542Z,-1.78
2022-11-23T22:42:39.571Z,-1.79
2022-11-23T22:47:42.700Z,-1.81
2022-11-23T22:52:45.768Z,-1.81
2022-11-23T22:57:48.861Z,-1.83
2022-11-23T23:02:51.952Z,-1.82
2022-11-23T23:07:55.920Z,-1.78
2022-11-23T23:12:58.984Z,-1.72
2022-11-23T23:18:02.090Z,-1.66
2022-11-23T23:23:05.846Z,-1.58
2022-11-23T23:28:08.923Z,-1.52
2022-11-23T23:33:13.528Z,-1.49
2022-11-23T23:38:16.552Z,-1.50
2022-11-23T23:43:19.557Z,-1.45
2022-11-23T23:48:22.532Z,-1.42
2022-11-23T23:53:25.627Z,-1.43
2022-11-23T23:58:30.067Z,-1.46
